Adrian, North Dakota
Current Conditions -  °F | °C
As of 7:56 AM on Sunday 23 Nov 2014 (Local Time) from KJMS Reporting Station
Broken Clouds Broken Clouds  
Wind Chill: 30°   Ceiling: 4200
Heat Index: 38°   Visibility: 10mi
Dew Point: 32°   Wind: 13mph
Humidity: 79%   Direction: 270°W
Pressure: 29.42"   Gusts: NA
Location:  46.6526°N, 98.6214°W
Report Text: KJMS 231356Z AUTO 27011KT 10SM BKN042 03/00 A2942 RMK AO2 SLP975 T00330000
Loading
Personal Weather Stations






























Interactive Weather Map New forecast layout! Learn more

10-Day Weather Forecast

Advertisements
Track Severe Weather on mobile